Time,TemperatureF,DewpointF,PressureIn,WindDirection,WindDirectionDegrees,WindSpeedMPH,WindSpeedGustMPH,Humidity,HourlyPrecipIn,Conditions,Clouds,dailyrainin,SoftwareType,DateUTC
2013-03-30 00:02:00,52.0,-99.9,30.09,SSE,147,3.0,6.0,-999,-99.99,,,-99.99,,2013-03-30 07:02:00,
2013-03-30 00:12:00,52.0,-99.9,30.09,SW,230,2.0,5.0,-999,-99.99,,,-99.99,,2013-03-30 07:12:00,
2013-03-30 00:22:00,52.0,-99.9,30.09,South,187,3.0,6.0,-999,-99.99,,,-99.99,,2013-03-30 07:22:00,
2013-03-30 00:32:00,51.0,-99.9,30.09,South,191,4.0,7.0,-999,-99.99,,,-99.99,,2013-03-30 07:32:00,
2013-03-30 00:42:00,51.0,-99.9,30.10,ESE,113,4.0,7.0,-999,-99.99,,,-99.99,,2013-03-30 07:42:00,
2013-03-30 00:52:00,51.0,-99.9,30.09,East,90,4.0,7.0,-999,-99.99,,,-99.99,,2013-03-30 07:52:00,
2013-03-30 01:02:00,50.0,-99.9,30.09,ESE,111,2.0,7.0,-999,-99.99,,,-99.99,,2013-03-30 08:02:00,
2013-03-30 01:12:00,51.0,-99.9,30.08,ESE,106,3.0,6.0,-999,-99.99,,,-99.99,,2013-03-30 08:12:00,
2013-03-30 01:22:00,51.0,-99.9,30.08,East,98,6.0,8.0,-999,-99.99,,,-99.99,,2013-03-30 08:22:00,
2013-03-30 01:32:00,51.0,-99.9,30.08,SE,142,1.0,5.0,-999,-99.99,,,-99.99,,2013-03-30 08:32:00,
2013-03-30 01:42:00,50.0,-99.9,30.08,ESE,108,3.0,9.0,-999,-99.99,,,-99.99,,2013-03-30 08:42:00,
2013-03-30 01:53:00,50.0,-99.9,30.08,South,174,4.0,8.0,-999,-99.99,,,-99.99,,2013-03-30 08:53:00,
2013-03-30 02:03:00,50.0,-99.9,30.08,South,183,4.0,6.0,-999,-99.99,,,-99.99,,2013-03-30 09:03:00,
2013-03-30 02:12:00,50.0,-99.9,30.08,East,94,4.0,6.0,-999,-99.99,,,-99.99,,2013-03-30 09:12:00,
2013-03-30 02:23:00,50.0,-99.9,30.07,ENE,69,3.0,6.0,-999,-99.99,,,-99.99,,2013-03-30 09:23:00,
2013-03-30 02:33:00,50.0,-99.9,30.07,East,101,4.0,6.0,-999,-99.99,,,-99.99,,2013-03-30 09:33:00,
2013-03-30 02:43:00,50.0,-99.9,30.07,ESE,106,2.0,5.0,-999,-99.99,,,-99.99,,2013-03-30 09:43:00,
2013-03-30 02:54:00,50.0,-99.9,30.07,South,188,5.0,6.0,-999,-99.99,,,-99.99,,2013-03-30 09:54:00,
2013-03-30 03:03:00,50.0,-99.9,30.07,South,189,3.0,6.0,-999,-99.99,,,-99.99,,2013-03-30 10:03:00,
2013-03-30 03:13:00,50.0,-99.9,30.07,ESE,110,3.0,5.0,-999,-99.99,,,-99.99,,2013-03-30 10:13:00,
2013-03-30 03:23:00,49.0,-99.9,30.07,ESE,106,4.0,6.0,-999,-99.99,,,-99.99,,2013-03-30 10:23:00,
2013-03-30 03:33:00,49.0,-99.9,30.07,East,89,3.0,6.0,-999,-99.99,,,-99.99,,2013-03-30 10:33:00,
2013-03-30 03:42:00,49.0,-99.9,30.06,North,350,2.0,4.0,-999,-99.99,,,-99.99,,2013-03-30 10:42:00,
2013-03-30 03:53:00,49.0,-99.9,30.06,North,8,1.0,4.0,-999,-99.99,,,-99.99,,2013-03-30 10:53:00,
2013-03-30 04:04:00,49.0,-99.9,30.06,SSE,154,1.0,4.0,-999,-99.99,,,-99.99,,2013-03-30 11:04:00,
2013-03-30 04:12:00,49.0,-99.9,30.06,SSW,206,3.0,4.0,-999,-99.99,,,-99.99,,2013-03-30 11:12:00,
2013-03-30 04:23:00,49.0,-99.9,30.06,South,181,3.0,6.0,-999,-99.99,,,-99.99,,2013-03-30 11:23:00,
2013-03-30 04:33:00,49.0,-99.9,30.05,South,191,6.0,6.0,-999,-99.99,,,-99.99,,2013-03-30 11:33:00,
2013-03-30 04:43:00,49.0,-99.9,30.04,SW,218,1.0,4.0,-999,-99.99,,,-99.99,,2013-03-30 11:43:00,
2013-03-30 04:53:00,49.0,-99.9,30.04,SSW,192,2.0,3.0,-999,-99.99,,,-99.99,,2013-03-30 11:53:00,
2013-03-30 05:03:00,49.0,-99.9,30.04,South,181,3.0,4.0,-999,-99.99,,,-99.99,,2013-03-30 12:03:00,
2013-03-30 05:13:00,49.0,-99.9,30.04,South,183,2.0,4.0,-999,-99.99,,,-99.99,,2013-03-30 12:13:00,
2013-03-30 05:23:00,49.0,-99.9,30.04,SSW,196,4.0,6.0,-999,-99.99,,,-99.99,,2013-03-30 12:23:00,
2013-03-30 05:33:00,49.0,-99.9,30.04,SSW,193,4.0,5.0,-999,-99.99,,,-99.99,,2013-03-30 12:33:00,
2013-03-30 05:43:00,49.0,-99.9,30.05,SSW,193,5.0,8.0,-999,-99.99,,,-99.99,,2013-03-30 12:43:00,
2013-03-30 05:53:00,49.0,-99.9,30.05,South,171,4.0,8.0,-999,-99.99,,,-99.99,,2013-03-30 12:53:00,
2013-03-30 06:02:00,49.0,-99.9,30.05,SE,142,2.0,7.0,-999,-99.99,,,-99.99,,2013-03-30 13:02:00,
2013-03-30 06:12:00,49.0,-99.9,30.04,ESE,102,4.0,6.0,-999,-99.99,,,-99.99,,2013-03-30 13:12:00,
2013-03-30 06:23:00,49.0,-99.9,30.04,ESE,119,5.0,7.0,-999,-99.99,,,-99.99,,2013-03-30 13:23:00,
2013-03-30 06:32:00,49.0,-99.9,30.04,East,82,3.0,8.0,-999,-99.99,,,-99.99,,2013-03-30 13:32:00,
2013-03-30 06:43:00,49.0,-99.9,30.04,SE,133,5.0,7.0,-999,-99.99,,,-99.99,,2013-03-30 13:43:00,
2013-03-30 06:53:00,49.0,-99.9,30.04,NE,56,3.0,6.0,-999,-99.99,,,-99.99,,2013-03-30 13:53:00,
2013-03-30 07:03:00,49.0,-99.9,30.04,ESE,105,7.0,9.0,-999,-99.99,,,-99.99,,2013-03-30 14:03:00,
2013-03-30 07:12:00,49.0,-99.9,30.05,South,178,4.0,7.0,-999,-99.99,,,-99.99,,2013-03-30 14:12:00,
2013-03-30 07:23:00,49.0,-99.9,30.06,ESE,108,8.0,11.0,-999,-99.99,,,-99.99,,2013-03-30 14:23:00,
2013-03-30 07:33:00,49.0,-99.9,30.04,East,84,5.0,12.0,-999,-99.99,,,-99.99,,2013-03-30 14:33:00,
2013-03-30 07:43:00,49.0,-99.9,30.06,South,180,6.0,12.0,-999,-99.99,,,-99.99,,2013-03-30 14:43:00,
2013-03-30 07:53:00,49.0,-99.9,30.06,ESE,115,8.0,11.0,-999,-99.99,,,-99.99,,2013-03-30 14:53:00,
2013-03-30 08:03:00,-999.0,-99.9,-100.00,East,94,4.0,10.0,-999,-99.99,,,-99.99,,2013-03-30 15:03:00,
2013-03-30 08:12:00,49.0,-99.9,30.06,East,86,8.0,10.0,-999,-99.99,,,-99.99,,2013-03-30 15:12:00,
2013-03-30 08:23:00,49.0,-99.9,30.06,ESE,116,5.0,9.0,-999,-99.99,,,-99.99,,2013-03-30 15:23:00,
2013-03-30 08:34:00,49.0,-99.9,30.06,ENE,65,4.0,9.0,-999,-99.99,,,-99.99,,2013-03-30 15:34:00,
2013-03-30 08:43:00,49.0,-99.9,30.06,ESE,113,8.0,12.0,-999,-99.99,,,-99.99,,2013-03-30 15:43:00,
2013-03-30 08:53:00,49.0,-99.9,30.06,ENE,74,4.0,10.0,-999,-99.99,,,-99.99,,2013-03-30 15:53:00,
2013-03-30 09:04:00,49.0,-99.9,30.06,NE,35,3.0,8.0,-999,-99.99,,,-99.99,,2013-03-30 16:04:00,
2013-03-30 09:13:00,49.0,-99.9,30.06,East,97,4.0,9.0,-999,-99.99,,,-99.99,,2013-03-30 16:13:00,
2013-03-30 09:23:00,49.0,-99.9,30.06,ESE,102,7.0,9.0,-999,-99.99,,,-99.99,,2013-03-30 16:23:00,
2013-03-30 09:33:00,49.0,-99.9,30.07,ENE,75,3.0,6.0,-999,-99.99,,,-99.99,,2013-03-30 16:33:00,
2013-03-30 09:43:00,49.0,-99.9,30.06,SW,225,5.0,9.0,-999,-99.99,,,-99.99,,2013-03-30 16:43:00,
2013-03-30 09:53:00,50.0,-99.9,30.06,ESE,106,5.0,8.0,-999,-99.99,,,-99.99,,2013-03-30 16:53:00,
2013-03-30 10:02:00,50.0,-99.9,30.06,ESE,123,4.0,9.0,-999,-99.99,,,-99.99,,2013-03-30 17:02:00,
2013-03-30 10:13:00,-999.0,-99.9,-100.00,WNW,297,3.0,5.0,-999,-99.99,,,-99.99,,2013-03-30 17:13:00,
2013-03-30 10:23:00,50.0,-99.9,30.06,West,269,2.0,6.0,-999,-99.99,,,-99.99,,2013-03-30 17:23:00,
2013-03-30 10:33:00,50.0,-99.9,30.07,South,172,2.0,9.0,-999,-99.99,,,-99.99,,2013-03-30 17:33:00,
2013-03-30 10:43:00,51.0,-99.9,30.07,East,84,3.0,7.0,-999,-99.99,,,-99.99,,2013-03-30 17:43:00,
2013-03-30 10:53:00,51.0,-99.9,30.06,East,79,3.0,9.0,-999,-99.99,,,-99.99,,2013-03-30 17:53:00,
2013-03-30 11:03:00,51.0,-99.9,30.06,ESE,104,4.0,8.0,-999,-99.99,,,-99.99,,2013-03-30 18:03:00,
2013-03-30 11:13:00,51.0,-99.9,30.07,ENE,66,5.0,7.0,-999,-99.99,,,-99.99,,2013-03-30 18:13:00,
2013-03-30 11:22:00,51.0,-99.9,30.08,ESE,110,7.0,15.0,-999,-99.99,,,-99.99,,2013-03-30 18:22:00,
2013-03-30 11:33:00,51.0,-99.9,30.08,East,94,13.0,18.0,-999,-99.99,,,-99.99,,2013-03-30 18:33:00,
2013-03-30 11:43:00,51.0,-99.9,30.08,ESE,102,12.0,19.0,-999,-99.99,,,-99.99,,2013-03-30 18:43:00,
2013-03-30 11:53:00,51.0,-99.9,30.08,ESE,104,13.0,17.0,-999,-99.99,,,-99.99,,2013-03-30 18:53:00,
2013-03-30 12:03:00,52.0,-99.9,30.08,ESE,104,16.0,22.0,-999,-99.99,,,-99.99,,2013-03-30 19:03:00,
2013-03-30 12:13:00,52.0,-99.9,30.08,East,101,15.0,22.0,-999,-99.99,,,-99.99,,2013-03-30 19:13:00,
2013-03-30 12:22:00,52.0,-99.9,30.08,ESE,107,15.0,21.0,-999,-99.99,,,-99.99,,2013-03-30 19:22:00,
2013-03-30 12:32:00,53.0,-99.9,30.07,ESE,103,15.0,19.0,-999,-99.99,,,-99.99,,2013-03-30 19:32:00,
2013-03-30 12:42:00,54.0,-99.9,30.07,ESE,104,14.0,24.0,-999,-99.99,,,-99.99,,2013-03-30 19:42:00,
2013-03-30 12:53:00,54.0,-99.9,30.07,ESE,105,14.0,17.0,-999,-99.99,,,-99.99,,2013-03-30 19:53:00,
2013-03-30 13:02:00,54.0,-99.9,30.07,East,88,15.0,21.0,-999,-99.99,,,-99.99,,2013-03-30 20:02:00,
2013-03-30 13:12:00,54.0,-99.9,30.07,ESE,106,17.0,19.0,-999,-99.99,,,-99.99,,2013-03-30 20:12:00,
2013-03-30 13:22:00,32.0,-99.9,-100.00,East,93,10.0,21.0,-999,-99.99,,,-99.99,,2013-03-30 20:22:00,
2013-03-30 13:33:00,53.0,-99.9,30.07,East,91,12.0,22.0,-999,-99.99,,,-99.99,,2013-03-30 20:33:00,
2013-03-30 13:43:00,53.0,-99.9,30.06,East,97,8.0,15.0,-999,-99.99,,,-99.99,,2013-03-30 20:43:00,
2013-03-30 13:53:00,53.0,-99.9,30.06,East,100,14.0,20.0,-999,-99.99,,,-99.99,,2013-03-30 20:53:00,
2013-03-30 14:03:00,55.0,-99.9,30.06,ESE,103,11.0,19.0,-999,-99.99,,,-99.99,,2013-03-30 21:03:00,
2013-03-30 14:13:00,56.0,-99.9,30.06,ESE,120,7.0,13.0,-999,-99.99,,,-99.99,,2013-03-30 21:13:00,
2013-03-30 14:23:00,56.0,-99.9,30.06,East,99,8.0,13.0,-999,-99.99,,,-99.99,,2013-03-30 21:23:00,
2013-03-30 14:34:00,56.0,-99.9,30.06,ESE,106,8.0,17.0,-999,-99.99,,,-99.99,,2013-03-30 21:34:00,
2013-03-30 14:43:00,56.0,-99.9,30.05,ESE,110,7.0,15.0,-999,-99.99,,,-99.99,,2013-03-30 21:43:00,
2013-03-30 14:53:00,56.0,-99.9,30.05,East,101,11.0,15.0,-999,-99.99,,,-99.99,,2013-03-30 21:53:00,
2013-03-30 15:03:00,55.0,-99.9,30.05,WSW,247,3.0,9.0,-999,-99.99,,,-99.99,,2013-03-30 22:03:00,
2013-03-30 15:13:00,55.0,-99.9,30.06,SW,222,4.0,9.0,-999,-99.99,,,-99.99,,2013-03-30 22:13:00,
2013-03-30 15:24:00,55.0,-99.9,30.06,ESE,106,2.0,10.0,-999,-99.99,,,-99.99,,2013-03-30 22:24:00,
2013-03-30 15:33:00,55.0,-99.9,30.05,South,173,5.0,13.0,-999,-99.99,,,-99.99,,2013-03-30 22:33:00,
2013-03-30 15:44:00,55.0,-99.9,30.05,SSW,194,4.0,9.0,-999,-99.99,,,-99.99,,2013-03-30 22:44:00,
2013-03-30 15:54:00,55.0,-99.9,30.05,South,183,5.0,9.0,-999,-99.99,,,-99.99,,2013-03-30 22:54:00,
2013-03-30 16:03:00,55.0,-99.9,30.04,SE,128,2.0,5.0,-999,-99.99,,,-99.99,,2013-03-30 23:03:00,
2013-03-30 16:13:00,55.0,-99.9,30.05,SSE,166,4.0,12.0,-999,-99.99,,,-99.99,,2013-03-30 23:13:00,
2013-03-30 16:22:00,55.0,-99.9,30.05,East,101,13.0,15.0,-999,-99.99,,,-99.99,,2013-03-30 23:22:00,
2013-03-30 16:33:00,55.0,-99.9,30.05,ESE,103,11.0,17.0,-999,-99.99,,,-99.99,,2013-03-30 23:33:00,
2013-03-30 16:43:00,55.0,-99.9,30.05,East,98,11.0,15.0,-999,-99.99,,,-99.99,,2013-03-30 23:43:00,
2013-03-30 16:53:00,55.0,-99.9,30.05,East,98,14.0,19.0,-999,-99.99,,,-99.99,,2013-03-30 23:53:00,
2013-03-30 17:03:00,55.0,-99.9,30.05,East,98,11.0,17.0,-999,-99.99,,,-99.99,,2013-03-31 00:03:00,
2013-03-30 17:12:00,55.0,-99.9,30.04,ESE,106,11.0,13.0,-999,-99.99,,,-99.99,,2013-03-31 00:12:00,
2013-03-30 17:23:00,55.0,-99.9,30.04,East,101,10.0,17.0,-999,-99.99,,,-99.99,,2013-03-31 00:23:00,
2013-03-30 17:33:00,55.0,-99.9,30.03,ESE,112,10.0,16.0,-999,-99.99,,,-99.99,,2013-03-31 00:33:00,
2013-03-30 17:43:00,55.0,-99.9,30.03,East,96,10.0,13.0,-999,-99.99,,,-99.99,,2013-03-31 00:43:00,
2013-03-30 17:53:00,56.0,-99.9,30.03,ESE,106,9.0,14.0,-999,-99.99,,,-99.99,,2013-03-31 00:53:00,
2013-03-30 18:02:00,56.0,-99.9,30.03,ESE,116,9.0,10.0,-999,-99.99,,,-99.99,,2013-03-31 01:02:00,
2013-03-30 18:12:00,-999.0,-99.9,-100.00,East,85,3.0,9.0,-999,-99.99,,,-99.99,,2013-03-31 01:12:00,
2013-03-30 18:22:00,56.0,-99.9,30.02,ESE,106,5.0,9.0,-999,-99.99,,,-99.99,,2013-03-31 01:22:00,
2013-03-30 18:32:00,56.0,-99.9,30.03,ESE,118,6.0,10.0,-999,-99.99,,,-99.99,,2013-03-31 01:32:00,
2013-03-30 18:43:00,56.0,-99.9,30.04,East,99,6.0,12.0,-999,-99.99,,,-99.99,,2013-03-31 01:43:00,
2013-03-30 18:53:00,56.0,-99.9,30.04,East,99,9.0,11.0,-999,-99.99,,,-99.99,,2013-03-31 01:53:00,
2013-03-30 19:02:00,-999.0,-99.9,-100.00,ESE,108,5.0,10.0,-999,-99.99,,,-99.99,,2013-03-31 02:02:00,
2013-03-30 19:13:00,56.0,-99.9,30.03,South,169,3.0,6.0,-999,-99.99,,,-99.99,,2013-03-31 02:13:00,
2013-03-30 19:22:00,55.0,-99.9,30.04,ESE,120,7.0,9.0,-999,-99.99,,,-99.99,,2013-03-31 02:22:00,
2013-03-30 19:33:00,55.0,-99.9,30.04,East,93,6.0,9.0,-999,-99.99,,,-99.99,,2013-03-31 02:33:00,
2013-03-30 19:43:00,56.0,-99.9,30.04,ESE,106,8.0,10.0,-999,-99.99,,,-99.99,,2013-03-31 02:43:00,
2013-03-30 19:53:00,56.0,-99.9,30.04,ESE,108,4.0,9.0,-999,-99.99,,,-99.99,,2013-03-31 02:53:00,
2013-03-30 20:02:00,-999.0,-99.9,-100.00,East,86,3.0,6.0,-999,-99.99,,,-99.99,,2013-03-31 03:02:00,
2013-03-30 20:13:00,56.0,-99.9,30.03,SE,142,1.0,3.0,-999,-99.99,,,-99.99,,2013-03-31 03:13:00,
2013-03-30 20:22:00,56.0,-99.9,30.04,ENE,66,1.0,1.0,-999,-99.99,,,-99.99,,2013-03-31 03:22:00,
2013-03-30 20:33:00,55.0,-99.9,30.03,WNW,298,2.0,2.0,-999,-99.99,,,-99.99,,2013-03-31 03:33:00,
2013-03-30 20:44:00,56.0,-99.9,30.03,East,83,4.0,6.0,-999,-99.99,,,-99.99,,2013-03-31 03:44:00,
2013-03-30 20:54:00,56.0,-99.9,30.03,East,83,3.0,6.0,-999,-99.99,,,-99.99,,2013-03-31 03:54:00,
2013-03-30 21:03:00,56.0,-99.9,30.03,East,91,3.0,5.0,-999,-99.99,,,-99.99,,2013-03-31 04:03:00,
2013-03-30 21:13:00,56.0,-99.9,30.03,East,85,2.0,3.0,-999,-99.99,,,-99.99,,2013-03-31 04:13:00,
2013-03-30 21:23:00,55.0,-99.9,30.03,East,86,2.0,4.0,-999,-99.99,,,-99.99,,2013-03-31 04:23:00,
2013-03-30 21:33:00,-999.0,-99.9,-100.00,East,101,2.0,2.0,-999,-99.99,,,-99.99,,2013-03-31 04:33:00,
2013-03-30 21:43:00,55.0,-99.9,30.04,ENE,77,2.0,3.0,-999,-99.99,,,-99.99,,2013-03-31 04:43:00,
2013-03-30 21:53:00,55.0,-99.9,30.04,East,101,1.0,3.0,-999,-99.99,,,-99.99,,2013-03-31 04:53:00,
2013-03-30 22:02:00,55.0,-99.9,30.04,ENE,65,2.0,3.0,-999,-99.99,,,-99.99,,2013-03-31 05:02:00,
2013-03-30 22:13:00,55.0,-99.9,30.04,ESE,105,2.0,3.0,-999,-99.99,,,-99.99,,2013-03-31 05:13:00,
2013-03-30 22:22:00,55.0,-99.9,30.04,East,97,1.0,2.0,-999,-99.99,,,-99.99,,2013-03-31 05:22:00,
2013-03-30 22:32:00,55.0,-99.9,30.04,ESE,111,1.0,2.0,-999,-99.99,,,-99.99,,2013-03-31 05:32:00,
2013-03-30 22:42:00,-999.0,-99.9,-100.00,ESE,108,1.0,2.0,-999,-99.99,,,-99.99,,2013-03-31 05:42:00,
2013-03-30 22:53:00,55.0,-99.9,30.04,ENE,67,1.0,2.0,-999,-99.99,,,-99.99,,2013-03-31 05:53:00,
2013-03-30 23:02:00,55.0,-99.9,30.04,East,85,1.0,3.0,-999,-99.99,,,-99.99,,2013-03-31 06:02:00,
2013-03-30 23:12:00,55.0,-99.9,30.04,ESE,107,3.0,5.0,-999,-99.99,,,-99.99,,2013-03-31 06:12:00,
2013-03-30 23:23:00,55.0,-99.9,30.04,SE,145,2.0,4.0,-999,-99.99,,,-99.99,,2013-03-31 06:23:00,
2013-03-30 23:33:00,54.0,-99.9,30.04,SSW,192,3.0,5.0,-999,-99.99,,,-99.99,,2013-03-31 06:33:00,
2013-03-30 23:42:00,53.0,-99.9,30.04,SE,133,1.0,4.0,-999,-99.99,,,-99.99,,2013-03-31 06:42:00,
2013-03-30 23:53:00,53.0,-99.9,30.03,South,188,2.0,3.0,-999,-99.99,,,-99.99,,2013-03-31 06:53:00,